Time;durP1;ratioP1;P1;durP2;ratioP2;P2;SDS_P1;SDS_P2;PMS_P1;PMS_P2;Temp;Humidity;BMP_temperature;BMP_pressure;BME280_temperature;BME280_humidity;BME280_pressure;Samples;Min_cycle;Max_cycle;Signal;HPM_P1;HPM_P2
2021/12/02 00:00:09;;;;;;;9.43;3.00;;;7.90;99.90;;;;;;5070364;28;20188;-61
2021/12/02 00:02:37;;;;;;;4.30;2.93;;;7.80;99.90;;;;;;5063974;28;20213;-60
2021/12/02 00:05:04;;;;;;;7.47;3.03;;;7.60;99.90;;;;;;5086359;28;20197;-60
2021/12/02 00:07:30;;;;;;;11.00;3.37;;;7.50;99.90;;;;;;5065680;28;20189;-60
2021/12/02 00:09:56;;;;;;;13.87;4.03;;;7.40;99.90;;;;;;5086208;28;20275;-61
2021/12/02 00:12:22;;;;;;;11.70;4.17;;;7.30;99.90;;;;;;5088504;28;20284;-61
2021/12/02 00:14:49;;;;;;;8.17;4.43;;;7.30;99.90;;;;;;5069371;28;20673;-60
2021/12/02 00:17:23;;;;;;;9.07;4.33;;;7.30;99.90;;;;;;5088913;28;20184;-61
2021/12/02 00:22:59;;;;;;;7.97;3.40;;;7.20;99.90;;;;;;5085469;28;20244;-61
2021/12/02 00:25:25;;;;;;;8.03;3.40;;;7.10;99.90;;;;;;5088604;28;20181;-60
2021/12/02 00:27:52;;;;;;;7.87;4.43;;;7.20;99.90;;;;;;5088263;28;20282;-61
2021/12/02 00:30:18;;;;;;;10.00;4.20;;;7.20;99.90;;;;;;5068447;28;20196;-60
2021/12/02 00:32:46;;;;;;;6.40;4.20;;;7.20;99.90;;;;;;5088588;28;20714;-60
2021/12/02 00:35:12;;;;;;;11.97;5.20;;;7.10;99.90;;;;;;5081855;28;20195;-61
2021/12/02 00:37:38;;;;;;;7.53;4.57;;;7.10;99.90;;;;;;5089593;28;20180;-62
2021/12/02 00:40:05;;;;;;;5.30;3.83;;;6.90;99.90;;;;;;5074623;28;20192;-61
2021/12/02 00:42:35;;;;;;;8.47;4.57;;;6.90;99.90;;;;;;5090131;28;20191;-61
2021/12/02 00:45:03;;;;;;;9.13;3.77;;;6.80;99.90;;;;;;5089500;28;20523;-61
2021/12/02 00:47:29;;;;;;;14.00;5.30;;;6.90;99.90;;;;;;5054938;28;20185;-61
2021/12/02 00:49:55;;;;;;;7.90;3.83;;;6.90;99.90;;;;;;5058665;28;20227;-61
2021/12/02 00:52:21;;;;;;;17.07;6.10;;;6.90;99.90;;;;;;5041976;28;20192;-60
2021/12/02 00:54:48;;;;;;;8.93;4.23;;;7.10;99.90;;;;;;5055126;28;20608;-60
2021/12/02 00:57:14;;;;;;;15.10;4.93;;;7.00;99.90;;;;;;5066346;28;20185;-61
2021/12/02 00:59:40;;;;;;;20.37;5.30;;;7.10;99.90;;;;;;5084053;28;20192;-60
2021/12/02 01:02:07;;;;;;;18.80;8.60;;;7.10;99.90;;;;;;5085982;28;20311;-61
2021/12/02 01:04:33;;;;;;;22.00;4.90;;;7.00;99.90;;;;;;5092199;28;20184;-60
2021/12/02 01:06:59;;;;;;;13.20;5.37;;;6.90;99.90;;;;;;5092880;28;20778;-61
2021/12/02 01:09:25;;;;;;;17.53;4.40;;;6.90;99.90;;;;;;5092018;28;20215;-61
2021/12/02 01:11:54;;;;;;;15.87;4.70;;;6.80;99.90;;;;;;5088563;28;20197;-60
2021/12/02 01:14:20;;;;;;;12.63;4.13;;;6.90;99.90;;;;;;5068887;28;20222;-60
2021/12/02 01:16:46;;;;;;;22.90;4.77;;;6.90;99.90;;;;;;5092542;28;20645;-61
2021/12/02 01:19:12;;;;;;;12.80;3.57;;;6.90;99.90;;;;;;5087778;28;20188;-62
2021/12/02 01:21:40;;;;;;;18.67;4.77;;;6.80;99.90;;;;;;5087331;28;20184;-60
2021/12/02 01:24:09;;;;;;;16.47;4.50;;;6.90;99.90;;;;;;5056248;28;20597;-60
2021/12/02 01:26:35;;;;;;;9.17;3.03;;;6.90;99.90;;;;;;5075148;28;20533;-62
2021/12/02 01:29:03;;;;;;;16.47;3.50;;;6.80;99.90;;;;;;5084118;28;20240;-61
2021/12/02 01:31:32;;;;;;;9.87;3.60;;;6.70;99.90;;;;;;5083707;28;20625;-61
2021/12/02 01:34:01;;;;;;;15.43;4.37;;;6.80;99.90;;;;;;5092783;28;20181;-61
2021/12/02 01:36:33;;;;;;;10.07;4.10;;;6.60;99.90;;;;;;5074183;28;20217;-62
2021/12/02 01:38:59;;;;;;;7.77;3.60;;;6.50;99.90;;;;;;5090346;28;20272;-60
2021/12/02 01:41:25;;;;;;;11.73;3.13;;;6.50;99.90;;;;;;5092950;28;20176;-61
2021/12/02 01:43:53;;;;;;;9.13;3.37;;;6.50;99.90;;;;;;5074527;28;20189;-61
2021/12/02 01:46:23;;;;;;;9.40;4.40;;;6.60;99.90;;;;;;5091652;28;20605;-61
2021/12/02 01:48:59;;;;;;;11.20;3.60;;;6.60;99.90;;;;;;5071767;28;20419;-60
2021/12/02 01:51:26;;;;;;;12.57;3.47;;;6.60;99.90;;;;;;5082778;28;20180;-61
2021/12/02 01:54:03;;;;;;;9.47;3.53;;;6.50;99.90;;;;;;5089160;28;20218;-61
2021/12/02 01:56:39;;;;;;;13.43;3.53;;;6.60;99.90;;;;;;5070553;28;20220;-60
2021/12/02 01:59:11;;;;;;;12.67;3.03;;;6.60;99.90;;;;;;5088540;28;20532;-61
2021/12/02 02:01:40;;;;;;;8.80;2.90;;;6.60;99.90;;;;;;5091290;28;20185;-60
2021/12/02 02:04:07;;;;;;;8.00;3.60;;;6.70;99.90;;;;;;5088059;28;20694;-61
2021/12/02 02:06:40;;;;;;;6.67;2.40;;;6.60;99.90;;;;;;5084575;28;20644;-61
2021/12/02 02:09:07;;;;;;;5.17;1.80;;;6.40;99.90;;;;;;5073873;28;20236;-61
2021/12/02 02:11:33;;;;;;;4.67;2.37;;;6.50;99.90;;;;;;5087352;28;20189;-60
2021/12/02 02:14:00;;;;;;;7.70;3.10;;;6.40;99.90;;;;;;5077894;28;20196;-61
2021/12/02 02:16:28;;;;;;;2.83;1.87;;;6.50;99.90;;;;;;5082506;28;20327;-61
2021/12/02 02:18:54;;;;;;;3.67;1.53;;;6.50;99.90;;;;;;5066323;28;20220;-62
2021/12/02 02:21:23;;;;;;;3.43;2.07;;;6.50;99.90;;;;;;5090823;28;20192;-60
2021/12/02 02:23:51;;;;;;;8.97;1.60;;;6.40;99.90;;;;;;5070867;28;20193;-61
2021/12/02 02:26:29;;;;;;;4.47;1.60;;;6.40;99.90;;;;;;5073304;28;20243;-61
2021/12/02 02:28:57;;;;;;;2.03;1.60;;;6.60;99.90;;;;;;5085062;28;20212;-62
2021/12/02 02:31:24;;;;;;;1.93;1.30;;;6.40;99.90;;;;;;5068385;28;20230;-61
2021/12/02 02:33:52;;;;;;;6.27;1.20;;;6.40;99.90;;;;;;5086468;28;20219;-61
2021/12/02 02:36:20;;;;;;;4.37;1.30;;;6.50;99.90;;;;;;5054120;28;20223;-61
2021/12/02 02:38:57;;;;;;;6.60;1.50;;;6.50;99.90;;;;;;5071879;28;20555;-60
2021/12/02 02:41:26;;;;;;;8.07;2.43;;;6.60;99.90;;;;;;5074004;28;20213;-60
2021/12/02 02:43:58;;;;;;;12.07;3.93;;;6.50;99.90;;;;;;5092602;28;20181;-61
2021/12/02 02:46:29;;;;;;;8.73;2.93;;;6.50;99.90;;;;;;5091709;28;20173;-61
2021/12/02 02:48:57;;;;;;;4.93;2.77;;;6.40;99.90;;;;;;5091960;28;20204;-60
2021/12/02 02:51:23;;;;;;;7.03;2.80;;;6.40;99.90;;;;;;5091899;28;20694;-59
2021/12/02 02:53:55;;;;;;;6.13;2.53;;;6.40;99.90;;;;;;5080218;28;20190;-60
2021/12/02 02:56:24;;;;;;;11.27;2.17;;;6.30;99.90;;;;;;5087353;28;20195;-59
2021/12/02 02:59:03;;;;;;;8.00;2.47;;;6.30;99.90;;;;;;5069211;28;20209;-59
2021/12/02 03:06:49;;;;;;;10.97;2.67;;;6.20;99.90;;;;;;5092019;28;20221;-60
2021/12/02 03:11:54;;;;;;;4.27;2.13;;;6.10;99.90;;;;;;5078262;28;20610;-59
2021/12/02 03:14:32;;;;;;;7.57;2.77;;;6.00;99.90;;;;;;5061043;28;20180;-61
2021/12/02 03:16:58;;;;;;;8.43;2.57;;;5.90;99.90;;;;;;5073843;28;20537;-60
2021/12/02 03:19:27;;;;;;;8.20;1.90;;;5.80;99.90;;;;;;5094794;28;20196;-60
2021/12/02 03:21:56;;;;;;;3.10;2.43;;;5.80;99.90;;;;;;5090162;28;20685;-60
2021/12/02 03:24:22;;;;;;;6.57;2.03;;;5.90;99.90;;;;;;5081873;28;20173;-60
2021/12/02 03:26:48;;;;;;;8.70;2.30;;;6.00;99.90;;;;;;5076542;28;20550;-60
2021/12/02 03:29:14;;;;;;;3.00;2.03;;;6.00;99.90;;;;;;5089173;28;20205;-60
2021/12/02 03:31:40;;;;;;;2.97;1.90;;;5.90;99.90;;;;;;5052195;28;20553;-60
2021/12/02 03:34:07;;;;;;;4.93;1.87;;;5.80;99.90;;;;;;5087770;28;20189;-60
2021/12/02 03:36:33;;;;;;;2.93;2.73;;;5.80;99.90;;;;;;5077313;28;20541;-60
2021/12/02 03:38:59;;;;;;;3.53;1.60;;;5.90;99.90;;;;;;5074266;28;20679;-62
2021/12/02 03:41:26;;;;;;;4.07;1.10;;;5.90;99.90;;;;;;5051764;28;20189;-62
2021/12/02 03:43:52;;;;;;;4.93;2.27;;;6.00;99.90;;;;;;5094984;28;20633;-59
2021/12/02 03:46:21;;;;;;;3.27;1.10;;;5.90;99.90;;;;;;5094541;28;20185;-60
2021/12/02 03:48:48;;;;;;;2.47;1.13;;;5.90;99.90;;;;;;5076405;28;20204;-60
2021/12/02 03:51:14;;;;;;;2.87;1.30;;;5.80;99.90;;;;;;5083228;28;20197;-60
2021/12/02 03:53:40;;;;;;;4.87;1.60;;;5.80;99.90;;;;;;5095037;28;20185;-60
2021/12/02 03:56:07;;;;;;;1.20;0.77;;;5.80;99.90;;;;;;5052957;28;20240;-61
2021/12/02 03:58:34;;;;;;;3.10;0.90;;;5.80;99.90;;;;;;5077034;28;20185;-61
2021/12/02 04:00:59;;;;;;;2.03;1.27;;;5.70;99.90;;;;;;5086718;28;20184;-60
2021/12/02 04:03:25;;;;;;;1.00;0.80;;;5.80;99.90;;;;;;5076003;28;20183;-61
2021/12/02 04:05:51;;;;;;;2.63;1.10;;;5.80;99.90;;;;;;5094771;28;20553;-61
2021/12/02 04:08:26;;;;;;;9.30;1.50;;;5.70;99.90;;;;;;5094590;28;20258;-60
2021/12/02 04:10:59;;;;;;;1.77;1.67;;;5.70;99.90;;;;;;5065209;28;20192;-61
2021/12/02 04:13:26;;;;;;;2.57;1.60;;;5.70;99.90;;;;;;5094637;28;20200;-61
2021/12/02 04:15:57;;;;;;;1.63;1.20;;;5.70;99.90;;;;;;5070268;28;20242;-62
2021/12/02 04:18:23;;;;;;;2.17;1.30;;;5.70;99.90;;;;;;5074988;28;20275;-60
2021/12/02 04:20:48;;;;;;;2.80;1.50;;;5.60;99.90;;;;;;5059857;28;20669;-60
2021/12/02 04:23:14;;;;;;;1.87;1.43;;;5.60;99.90;;;;;;5086286;28;20715;-60
2021/12/02 04:25:40;;;;;;;2.03;1.63;;;5.70;99.90;;;;;;5076066;28;20195;-60
2021/12/02 04:28:06;;;;;;;2.97;2.20;;;5.70;99.90;;;;;;5081118;28;20195;-61
2021/12/02 04:30:31;;;;;;;5.20;2.13;;;5.80;99.90;;;;;;5083854;28;20196;-60
2021/12/02 04:32:57;;;;;;;5.10;2.80;;;5.80;99.90;;;;;;5075833;28;20666;-61
2021/12/02 04:35:23;;;;;;;9.97;4.03;;;5.80;99.90;;;;;;5075838;28;20185;-62
2021/12/02 04:37:52;;;;;;;9.20;3.23;;;5.80;99.90;;;;;;5090421;28;20193;-60
2021/12/02 04:40:20;;;;;;;11.93;4.17;;;5.90;99.90;;;;;;5073204;28;20262;-60
2021/12/02 04:42:47;;;;;;;10.90;4.93;;;5.70;99.90;;;;;;5072127;28;20189;-60
2021/12/02 04:45:12;;;;;;;11.63;4.70;;;5.70;99.90;;;;;;5088206;28;20177;-60
2021/12/02 04:47:39;;;;;;;8.90;4.53;;;5.50;99.90;;;;;;5093969;28;20219;-60
2021/12/02 04:50:06;;;;;;;10.40;4.27;;;5.40;99.90;;;;;;5058650;28;20744;-63
2021/12/02 04:52:32;;;;;;;8.50;4.47;;;5.50;99.90;;;;;;5055956;28;20201;-62
2021/12/02 04:54:58;;;;;;;8.83;3.80;;;5.50;99.90;;;;;;5088171;28;20234;-60
2021/12/02 04:57:24;;;;;;;11.40;4.47;;;5.50;99.90;;;;;;5086297;28;20184;-60
2021/12/02 04:59:49;;;;;;;9.10;3.37;;;5.40;99.90;;;;;;5093655;28;20192;-63
2021/12/02 05:02:15;;;;;;;9.73;3.60;;;5.50;99.90;;;;;;5069616;28;20188;-60
2021/12/02 05:04:41;;;;;;;12.17;3.63;;;5.50;99.90;;;;;;5092519;28;20191;-62
2021/12/02 05:07:06;;;;;;;7.23;3.77;;;5.40;99.90;;;;;;5055768;28;20188;-61
2021/12/02 05:09:32;;;;;;;9.23;3.97;;;5.40;99.90;;;;;;5073208;28;20216;-62
2021/12/02 05:11:58;;;;;;;6.60;3.47;;;5.40;99.90;;;;;;5053961;28;20536;-62
2021/12/02 05:14:23;;;;;;;7.77;3.63;;;5.30;99.90;;;;;;5060000;28;20189;-62
2021/12/02 05:16:49;;;;;;;6.37;3.00;;;5.40;99.90;;;;;;5058508;28;20197;-61
2021/12/02 05:19:15;;;;;;;5.37;2.63;;;5.40;99.90;;;;;;5071745;28;20188;-61
2021/12/02 05:21:41;;;;;;;2.70;1.73;;;5.30;99.90;;;;;;5062714;28;20208;-62
2021/12/02 05:24:07;;;;;;;5.60;2.67;;;5.20;99.90;;;;;;5040529;28;20283;-59
2021/12/02 05:26:33;;;;;;;6.63;1.17;;;5.20;99.90;;;;;;5075074;28;20630;-60
2021/12/02 05:28:59;;;;;;;3.53;1.20;;;5.10;99.90;;;;;;5082705;28;20211;-60
2021/12/02 05:31:25;;;;;;;3.10;1.20;;;5.00;99.90;;;;;;5072527;28;20189;-60
2021/12/02 05:33:50;;;;;;;1.43;1.33;;;4.90;99.90;;;;;;5058468;28;20641;-60
2021/12/02 05:36:16;;;;;;;3.07;1.57;;;4.80;99.90;;;;;;5092823;28;20630;-60
2021/12/02 05:38:42;;;;;;;3.47;1.50;;;4.60;99.90;;;;;;5092128;28;20184;-60
2021/12/02 05:41:07;;;;;;;2.67;1.23;;;4.30;99.90;;;;;;5053188;28;20223;-60
2021/12/02 05:43:34;;;;;;;1.10;0.90;;;4.30;99.90;;;;;;5063967;28;20459;-60
2021/12/02 05:45:59;;;;;;;3.83;2.63;;;4.20;99.90;;;;;;5058035;28;20604;-60
2021/12/02 05:48:25;;;;;;;2.37;1.33;;;4.20;99.90;;;;;;5055606;28;20205;-60
2021/12/02 05:50:51;;;;;;;6.63;1.50;;;4.40;99.90;;;;;;5073725;28;20680;-60
2021/12/02 05:53:18;;;;;;;4.50;1.40;;;4.40;99.90;;;;;;5087268;28;20184;-62
2021/12/02 05:55:44;;;;;;;2.63;2.33;;;4.50;99.90;;;;;;5072815;28;20200;-60
2021/12/02 05:58:14;;;;;;;1.37;1.27;;;4.50;99.90;;;;;;5067408;28;20193;-60
2021/12/02 06:00:40;;;;;;;3.10;1.67;;;4.50;99.90;;;;;;5057634;28;20195;-60
2021/12/02 06:03:07;;;;;;;4.33;1.27;;;4.50;99.90;;;;;;5085431;28;20185;-60
2021/12/02 06:05:33;;;;;;;3.33;1.10;;;4.50;99.90;;;;;;5072409;28;20196;-60
2021/12/02 06:08:01;;;;;;;1.07;0.97;;;4.60;99.90;;;;;;5092372;28;20203;-60
2021/12/02 06:10:27;;;;;;;3.77;1.33;;;4.70;99.90;;;;;;5082602;28;20185;-60
2021/12/02 06:12:53;;;;;;;4.20;1.20;;;4.70;99.90;;;;;;5092412;28;20181;-60
2021/12/02 06:15:19;;;;;;;4.27;1.20;;;4.60;99.90;;;;;;5092374;28;20189;-60
2021/12/02 06:17:45;;;;;;;3.90;1.13;;;4.60;99.90;;;;;;5087909;28;20263;-60
2021/12/02 06:20:12;;;;;;;6.03;1.30;;;4.50;99.90;;;;;;5076764;28;20196;-60
2021/12/02 06:22:38;;;;;;;6.57;1.50;;;4.50;99.90;;;;;;5078663;28;20259;-60
2021/12/02 06:27:40;;;;;;;7.93;1.40;;;4.70;99.90;;;;;;5089786;28;20648;-60
2021/12/02 06:30:07;;;;;;;2.90;1.20;;;4.70;99.90;;;;;;5072447;28;20204;-61
2021/12/02 06:32:33;;;;;;;1.70;1.23;;;4.70;99.90;;;;;;5092284;28;20246;-61
2021/12/02 06:34:58;;;;;;;8.73;1.60;;;4.70;99.90;;;;;;5069218;28;20578;-61
2021/12/02 06:37:25;;;;;;;4.90;1.70;;;4.80;99.90;;;;;;5062944;28;20192;-60
2021/12/02 06:39:51;;;;;;;8.90;2.10;;;4.90;99.90;;;;;;5043600;28;20250;-60
2021/12/02 06:42:17;;;;;;;4.37;2.20;;;4.70;99.90;;;;;;5083374;28;20184;-60
2021/12/02 06:44:43;;;;;;;6.40;2.30;;;4.90;99.90;;;;;;5049724;28;20224;-60
2021/12/02 06:47:09;;;;;;;8.97;3.00;;;5.00;99.90;;;;;;5092942;28;20238;-60
2021/12/02 06:49:35;;;;;;;9.37;3.87;;;5.00;99.90;;;;;;5075409;28;20208;-60
2021/12/02 06:52:03;;;;;;;15.27;5.10;;;5.10;99.90;;;;;;5073769;28;20188;-60
2021/12/02 06:54:29;;;;;;;10.33;4.63;;;5.20;99.90;;;;;;5078449;28;20824;-61
2021/12/02 06:56:55;;;;;;;20.97;4.77;;;5.10;99.90;;;;;;5064783;28;20216;-62
2021/12/02 06:59:20;;;;;;;17.13;5.10;;;5.00;99.90;;;;;;5078501;28;20191;-61
2021/12/02 07:01:46;;;;;;;13.77;5.43;;;4.90;99.90;;;;;;5095306;28;20601;-61
2021/12/02 07:04:13;;;;;;;13.97;4.60;;;4.80;99.90;;;;;;5095898;28;20586;-61
2021/12/02 07:06:39;;;;;;;17.67;5.40;;;4.80;99.90;;;;;;5077682;28;20184;-61
2021/12/02 07:09:06;;;;;;;18.33;5.70;;;4.70;99.90;;;;;;5070496;28;20307;-61
2021/12/02 07:11:32;;;;;;;14.70;5.50;;;4.60;99.90;;;;;;5075656;28;20279;-61
2021/12/02 07:14:03;;;;;;;14.27;4.40;;;4.60;99.90;;;;;;5069180;28;20173;-62
2021/12/02 07:16:28;;;;;;;8.97;3.23;;;4.70;99.90;;;;;;5062386;28;20246;-61
2021/12/02 07:18:56;;;;;;;15.90;4.63;;;4.70;99.90;;;;;;5088583;28;20569;-61
2021/12/02 07:21:24;;;;;;;5.07;2.57;;;4.70;99.90;;;;;;5073297;28;20181;-61
2021/12/02 07:23:53;;;;;;;5.60;2.63;;;4.70;99.90;;;;;;5085872;28;20220;-61
2021/12/02 07:26:18;;;;;;;3.67;1.20;;;4.60;99.90;;;;;;5092975;28;20192;-60
2021/12/02 07:28:46;;;;;;;0.93;0.93;;;4.30;99.90;;;;;;5090675;28;20216;-61
2021/12/02 07:31:13;;;;;;;1.43;1.17;;;4.00;99.90;;;;;;5095447;28;20235;-61
2021/12/02 07:33:42;;;;;;;0.77;0.77;;;3.60;99.90;;;;;;5073936;28;20186;-64
2021/12/02 07:36:07;;;;;;;1.50;1.40;;;3.20;99.90;;;;;;5067211;28;20250;-63
2021/12/02 07:38:38;;;;;;;1.33;1.23;;;3.00;99.90;;;;;;5090286;28;20635;-64
2021/12/02 07:41:04;;;;;;;2.37;1.63;;;2.80;99.90;;;;;;5089533;28;20193;-63
2021/12/02 07:43:35;;;;;;;1.27;1.17;;;2.70;99.90;;;;;;5086674;28;20210;-63
2021/12/02 07:46:02;;;;;;;0.97;0.97;;;2.60;99.90;;;;;;5084447;28;20242;-62
2021/12/02 07:48:28;;;;;;;0.90;0.90;;;2.60;99.90;;;;;;5081611;28;20212;-61
2021/12/02 07:51:06;;;;;;;0.90;0.90;;;2.70;99.90;;;;;;5092438;28;20272;-62
2021/12/02 07:53:32;;;;;;;1.10;1.10;;;2.70;99.90;;;;;;5091832;28;20584;-62
2021/12/02 07:56:03;;;;;;;1.20;1.20;;;2.60;99.90;;;;;;5076156;28;20184;-61
2021/12/02 07:58:30;;;;;;;5.03;1.53;;;2.70;99.90;;;;;;5092296;28;20188;-61
2021/12/02 08:01:00;;;;;;;1.70;1.00;;;2.70;99.90;;;;;;5086672;28;20189;-61
2021/12/02 08:03:26;;;;;;;2.10;1.60;;;2.80;99.90;;;;;;5089533;28;20259;-61
2021/12/02 08:05:53;;;;;;;4.63;1.63;;;2.80;99.90;;;;;;5094222;28;20180;-62
2021/12/02 08:08:19;;;;;;;1.50;1.40;;;3.00;99.90;;;;;;5095348;28;20209;-63
2021/12/02 08:10:45;;;;;;;2.07;1.70;;;3.10;99.90;;;;;;5079208;28;20201;-62
2021/12/02 08:13:13;;;;;;;1.73;1.63;;;3.10;99.90;;;;;;5082135;28;20541;-61
2021/12/02 08:15:40;;;;;;;1.50;1.40;;;3.20;99.90;;;;;;5068503;28;20188;-62
2021/12/02 08:18:07;;;;;;;1.90;1.57;;;3.30;99.90;;;;;;5090046;28;20195;-62
2021/12/02 08:20:33;;;;;;;2.37;1.20;;;3.30;99.90;;;;;;5076712;28;20192;-62
2021/12/02 08:22:59;;;;;;;1.57;1.30;;;3.40;99.90;;;;;;5064673;28;20181;-62
2021/12/02 08:25:27;;;;;;;1.30;1.07;;;3.60;99.90;;;;;;5086561;28;20272;-62
2021/12/02 08:27:54;;;;;;;6.53;2.40;;;3.80;99.90;;;;;;5067155;28;20650;-61
2021/12/02 08:30:23;;;;;;;1.57;1.30;;;3.90;99.90;;;;;;5070070;28;20228;-63
2021/12/02 08:32:49;;;;;;;3.17;1.50;;;4.00;99.90;;;;;;5094170;28;20239;-64
2021/12/02 08:35:16;;;;;;;1.40;1.40;;;4.00;99.90;;;;;;5093955;28;20187;-74
2021/12/02 08:37:47;;;;;;;2.83;1.53;;;3.80;99.90;;;;;;5076126;28;20630;-70
2021/12/02 08:40:19;;;;;;;2.67;1.60;;;3.70;99.90;;;;;;5076373;28;20663;-66
2021/12/02 08:42:46;;;;;;;2.57;2.07;;;3.70;99.90;;;;;;5094034;28;20188;-64
2021/12/02 08:45:13;;;;;;;1.80;1.70;;;3.70;99.90;;;;;;5073629;28;20185;-63
2021/12/02 08:47:45;;;;;;;4.07;2.67;;;3.70;99.90;;;;;;5089306;28;20272;-61
2021/12/02 08:50:16;;;;;;;3.13;2.63;;;3.70;99.90;;;;;;5092532;28;20196;-61
2021/12/02 08:52:42;;;;;;;5.33;2.90;;;3.70;99.90;;;;;;5083088;28;20185;-62
2021/12/02 08:55:09;;;;;;;3.50;2.57;;;3.70;99.90;;;;;;5068756;28;20198;-61
2021/12/02 08:57:35;;;;;;;5.10;3.30;;;3.70;99.90;;;;;;5091917;28;20271;-62
2021/12/02 09:00:03;;;;;;;7.00;2.93;;;3.80;99.90;;;;;;5092747;28;20541;-62
2021/12/02 09:02:29;;;;;;;3.53;3.13;;;3.90;99.90;;;;;;5093507;28;20200;-61
2021/12/02 09:04:55;;;;;;;8.87;4.57;;;4.00;99.90;;;;;;5073531;28;20197;-62
2021/12/02 09:07:20;;;;;;;8.77;4.23;;;4.10;99.90;;;;;;5075312;28;20184;-61
2021/12/02 09:09:46;;;;;;;9.07;4.40;;;4.20;99.90;;;;;;5058500;28;20269;-62
2021/12/02 09:12:11;;;;;;;7.67;3.93;;;4.10;99.90;;;;;;5075360;28;20216;-62
2021/12/02 09:14:37;;;;;;;7.70;3.53;;;4.10;99.90;;;;;;5093226;28;20261;-62
2021/12/02 09:17:03;;;;;;;5.93;4.03;;;4.10;99.90;;;;;;5086724;28;20314;-61
2021/12/02 09:19:29;;;;;;;7.00;3.87;;;4.10;99.90;;;;;;5090963;28;20188;-62
2021/12/02 09:21:55;;;;;;;6.60;3.90;;;4.10;99.90;;;;;;5072515;28;20192;-62
2021/12/02 09:24:21;;;;;;;8.57;4.43;;;4.20;99.90;;;;;;5088471;28;20274;-62
2021/12/02 09:26:49;;;;;;;11.10;5.33;;;4.30;99.90;;;;;;5056929;28;20181;-62
2021/12/02 09:29:16;;;;;;;12.87;5.80;;;4.50;99.90;;;;;;5058642;28;20608;-62
2021/12/02 09:31:43;;;;;;;16.60;5.10;;;4.70;99.90;;;;;;5089163;28;20185;-62
2021/12/02 09:34:09;;;;;;;13.60;4.30;;;4.90;99.90;;;;;;5083824;28;20590;-62
2021/12/02 09:36:35;;;;;;;12.17;4.93;;;5.00;99.90;;;;;;5087108;28;20199;-62
2021/12/02 09:39:02;;;;;;;17.47;5.57;;;5.30;99.90;;;;;;5061488;28;20646;-62
2021/12/02 09:41:28;;;;;;;11.53;5.03;;;5.30;99.90;;;;;;5080985;28;20181;-62
2021/12/02 09:43:54;;;;;;;18.87;5.90;;;5.20;99.90;;;;;;5088391;28;20276;-62
2021/12/02 09:46:19;;;;;;;12.97;5.77;;;5.00;99.90;;;;;;5092789;28;20196;-62
2021/12/02 09:48:46;;;;;;;12.73;5.27;;;4.60;99.90;;;;;;5079728;28;20253;-62
2021/12/02 09:51:19;;;;;;;9.93;4.70;;;4.60;99.90;;;;;;5074640;28;20590;-62
2021/12/02 09:54:30;;;;;;;12.17;4.83;;;4.50;99.90;;;;;;5058579;28;20271;-62
2021/12/02 09:56:38;;;;;;;12.23;4.27;;;4.30;99.90;;;;;;5067538;28;20205;-62
2021/12/02 09:59:08;;;;;;;6.67;4.03;;;4.40;99.90;;;;;;5091320;28;20245;-62
2021/12/02 10:02:09;;;;;;;7.73;3.73;;;4.30;99.90;;;;;;5089064;28;20795;-62
2021/12/02 10:04:27;;;;;;;7.87;3.93;;;4.20;99.90;;;;;;5086662;28;20595;-62
2021/12/02 10:07:14;;;;;;;11.43;4.10;;;4.10;99.90;;;;;;5092301;28;20188;-62
2021/12/02 10:12:50;;;;;;;9.57;3.90;;;4.00;99.90;;;;;;5086176;28;20212;-62
2021/12/02 10:15:17;;;;;;;6.67;3.53;;;4.00;99.90;;;;;;5081679;28;20263;-62
2021/12/02 10:17:49;;;;;;;7.63;4.30;;;4.10;99.90;;;;;;5056082;28;20276;-62
2021/12/02 10:23:22;;;;;;;10.57;3.30;;;4.50;99.90;;;;;;5084566;28;20183;-63
2021/12/02 10:25:57;;;;;;;5.50;1.90;;;4.50;99.90;;;;;;5083202;28;20165;-64
2021/12/02 10:28:26;;;;;;;4.17;2.00;;;4.30;99.90;;;;;;5089476;28;20188;-65
2021/12/02 10:31:02;;;;;;;1.60;1.50;;;4.20;99.90;;;;;;5066487;28;20342;-66
2021/12/02 10:33:32;;;;;;;1.80;1.70;;;4.00;99.90;;;;;;5070772;28;20253;-67
2021/12/02 10:35:58;;;;;;;1.63;1.53;;;3.80;99.90;;;;;;5089348;28;20192;-65
2021/12/02 10:38:41;;;;;;;3.20;1.33;;;3.60;99.90;;;;;;5085120;28;20188;-65
2021/12/02 10:41:13;;;;;;;3.57;1.50;;;3.60;99.90;;;;;;5083266;28;20178;-63
2021/12/02 10:44:07;;;;;;;5.20;1.87;;;3.70;99.90;;;;;;5087058;28;20181;-63
2021/12/02 10:46:35;;;;;;;1.47;1.37;;;3.80;99.90;;;;;;5078029;28;20843;-63
2021/12/02 10:49:02;;;;;;;1.63;1.53;;;3.90;99.90;;;;;;5065964;28;20321;-65
2021/12/02 10:51:37;;;;;;;1.37;1.33;;;4.10;99.90;;;;;;5053278;28;20281;-63
2021/12/02 10:54:13;;;;;;;1.40;1.30;;;4.20;99.90;;;;;;5090066;28;20195;-65
2021/12/02 10:56:41;;;;;;;2.70;1.70;;;4.40;99.90;;;;;;5073778;28;20208;-65
2021/12/02 10:59:30;;;;;;;3.50;1.57;;;4.60;99.90;;;;;;5071991;28;20197;-63
2021/12/02 11:02:03;;;;;;;1.80;1.70;;;4.50;99.90;;;;;;5086493;28;20520;-62
2021/12/02 11:04:38;;;;;;;1.83;1.73;;;4.60;99.90;;;;;;5085747;28;20174;-63
2021/12/02 11:07:10;;;;;;;1.97;1.83;;;4.70;99.90;;;;;;5089311;28;20192;-62
2021/12/02 11:09:37;;;;;;;4.63;1.83;;;4.70;99.90;;;;;;5071268;28;20208;-63
2021/12/02 11:12:24;;;;;;;1.93;1.83;;;4.60;99.90;;;;;;5087670;28;20189;-63
2021/12/02 11:15:20;;;;;;;3.43;2.30;;;4.50;99.90;;;;;;5089559;28;20198;-63
2021/12/02 11:17:47;;;;;;;1.90;1.80;;;4.50;99.90;;;;;;5068984;28;20180;-64
2021/12/02 11:20:22;;;;;;;2.23;1.93;;;4.50;99.90;;;;;;5085833;28;20215;-64
2021/12/02 11:22:58;;;;;;;1.77;1.67;;;4.70;99.90;;;;;;5071515;28;20180;-67
2021/12/02 11:25:24;;;;;;;2.30;2.10;;;4.70;99.90;;;;;;5088045;28;20181;-66
2021/12/02 11:27:51;;;;;;;2.30;2.00;;;4.80;99.90;;;;;;5086425;28;20227;-65
2021/12/02 11:30:23;;;;;;;5.97;2.60;;;4.80;99.90;;;;;;5071204;28;20584;-66
2021/12/02 11:32:56;;;;;;;2.70;2.07;;;4.90;99.90;;;;;;5091272;28;20695;-66
2021/12/02 11:35:35;;;;;;;6.80;3.10;;;4.90;99.90;;;;;;5082186;28;20181;-66
2021/12/02 11:38:14;;;;;;;5.87;3.50;;;4.80;99.90;;;;;;5084106;28;20185;-64
2021/12/02 11:40:49;;;;;;;3.63;2.33;;;5.00;99.90;;;;;;5090021;28;20542;-66
2021/12/02 11:43:18;;;;;;;9.33;4.87;;;5.20;99.90;;;;;;5084302;28;20648;-62
2021/12/02 11:45:46;;;;;;;7.93;4.60;;;5.30;99.90;;;;;;5092802;28;20185;-64
2021/12/02 11:48:33;;;;;;;3.13;2.93;;;5.30;99.90;;;;;;5087924;28;20242;-62
2021/12/02 11:51:03;;;;;;;2.70;2.50;;;5.20;99.90;;;;;;5075582;28;20250;-63
2021/12/02 11:53:29;;;;;;;3.50;3.23;;;5.10;99.90;;;;;;5091957;28;20268;-64
2021/12/02 11:56:08;;;;;;;2.90;2.63;;;5.30;99.90;;;;;;5075545;28;20710;-64
2021/12/02 11:58:34;;;;;;;3.83;3.53;;;5.10;99.90;;;;;;5073902;28;20173;-63
2021/12/02 12:01:00;;;;;;;4.50;3.17;;;5.10;99.90;;;;;;5093252;28;20192;-65
2021/12/02 12:04:03;;;;;;;3.40;3.10;;;5.10;99.90;;;;;;5083164;28;20266;-64
2021/12/02 12:06:34;;;;;;;4.67;3.40;;;5.20;99.90;;;;;;5012911;28;20586;-64
2021/12/02 12:09:09;;;;;;;4.47;3.43;;;5.40;99.90;;;;;;5070512;28;20221;-62
2021/12/02 12:11:35;;;;;;;4.17;3.73;;;5.40;99.90;;;;;;5091754;28;20220;-62
2021/12/02 12:14:09;;;;;;;5.30;3.50;;;5.40;99.90;;;;;;5092576;28;20215;-62
2021/12/02 12:16:41;;;;;;;9.70;3.90;;;5.50;99.90;;;;;;5067815;28;20180;-62
2021/12/02 12:19:21;;;;;;;5.90;4.33;;;5.50;99.90;;;;;;5064481;28;20664;-61
2021/12/02 12:21:56;;;;;;;5.80;4.10;;;5.50;99.90;;;;;;5074418;28;20192;-62
2021/12/02 12:24:38;;;;;;;4.37;3.73;;;5.40;99.90;;;;;;5091808;28;20259;-59
2021/12/02 12:27:11;;;;;;;5.80;3.70;;;5.30;99.90;;;;;;5092013;28;20263;-59
2021/12/02 12:29:36;;;;;;;8.93;3.60;;;5.40;99.90;;;;;;5088379;28;20541;-59
2021/12/02 12:32:14;;;;;;;4.87;3.37;;;5.50;99.90;;;;;;5093593;28;20238;-59
2021/12/02 12:34:51;;;;;;;4.17;3.57;;;5.30;99.90;;;;;;5093449;28;20180;-59
2021/12/02 12:37:24;;;;;;;6.07;3.87;;;5.30;99.90;;;;;;5093988;28;20691;-60
2021/12/02 12:40:11;;;;;;;5.37;4.70;;;5.30;99.90;;;;;;5074490;28;20657;-59
2021/12/02 12:42:40;;;;;;;9.40;4.03;;;5.20;99.90;;;;;;5084650;28;20272;-59
2021/12/02 12:45:09;;;;;;;5.23;4.07;;;5.20;99.90;;;;;;5087002;28;20176;-60
2021/12/02 12:47:52;;;;;;;3.17;2.87;;;5.10;99.90;;;;;;5091409;28;20181;-59
2021/12/02 12:50:36;;;;;;;4.47;3.57;;;5.10;99.90;;;;;;5092238;28;20204;-70
2021/12/02 12:53:04;;;;;;;4.53;3.80;;;5.20;99.90;;;;;;5093220;28;20184;-61
2021/12/02 12:55:38;;;;;;;4.13;3.50;;;5.20;99.90;;;;;;5075524;28;20238;-61
2021/12/02 12:58:20;;;;;;;3.37;3.07;;;5.40;99.90;;;;;;5074361;28;20189;-61
2021/12/02 13:00:59;;;;;;;4.20;3.80;;;5.40;99.90;;;;;;5088311;28;20185;-60
2021/12/02 13:03:45;;;;;;;5.00;3.97;;;5.40;99.90;;;;;;5086780;28;20177;-60
2021/12/02 13:06:32;;;;;;;5.33;3.67;;;5.40;99.90;;;;;;5089206;28;20174;-61
2021/12/02 13:09:02;;;;;;;3.27;2.83;;;5.70;99.90;;;;;;5067060;28;20212;-63
2021/12/02 13:11:33;;;;;;;3.80;3.40;;;6.10;99.90;;;;;;5084914;28;20185;-61
2021/12/02 13:14:01;;;;;;;1.97;1.87;;;6.50;99.90;;;;;;5091015;28;20181;-61
2021/12/02 13:16:30;;;;;;;2.40;2.30;;;6.40;99.90;;;;;;5085115;28;20203;-61
2021/12/02 13:19:00;;;;;;;2.60;2.40;;;6.30;99.90;;;;;;5086979;28;20263;-61
2021/12/02 13:21:29;;;;;;;6.70;2.77;;;6.00;99.90;;;;;;5093062;28;20222;-61
2021/12/02 13:23:56;;;;;;;2.07;1.93;;;5.40;99.90;;;;;;5093035;28;20732;-70